Time;durP1;ratioP1;P1;durP2;ratioP2;P2;SDS_P1;SDS_P2;PMS_P1;PMS_P2;Temp;Humidity;BMP_temperature;BMP_pressure;BME280_temperature;BME280_humidity;BME280_pressure;Samples;Min_cycle;Max_cycle;Signal;HPM_P1;HPM_P2
2022/06/04 00:00:08;;;;;;;0.10;0.10;;;;;;;;;;4960527;28;20053;-88
2022/06/04 00:02:34;;;;;;;0.10;0.10;;;;;;;;;;4977143;28;20046;-88
2022/06/04 00:05:00;;;;;;;0.10;0.10;;;;;;;;;;4960859;28;20375;-87
2022/06/04 00:07:26;;;;;;;0.10;0.10;;;;;;;;;;4959594;28;20089;-88
2022/06/04 00:15:29;;;;;;;0.10;0.10;;;;;;;;;;4978813;28;20105;-87
2022/06/04 00:17:56;;;;;;;0.10;0.10;;;;;;;;;;4977512;28;20501;-87
2022/06/04 00:20:22;;;;;;;0.10;0.10;;;;;;;;;;4960290;28;20045;-87
2022/06/04 00:22:48;;;;;;;0.10;0.10;;;;;;;;;;4959997;28;20084;-87
2022/06/04 00:25:15;;;;;;;0.10;0.10;;;;;;;;;;4975836;28;20046;-87
2022/06/04 00:27:41;;;;;;;0.10;0.10;;;;;;;;;;4975979;28;20038;-88
2022/06/04 00:30:07;;;;;;;0.10;0.10;;;;;;;;;;4975930;28;20041;-87
2022/06/04 00:32:37;;;;;;;0.10;0.10;;;;;;;;;;4975904;28;20085;-87
2022/06/04 00:35:03;;;;;;;0.10;0.10;;;;;;;;;;4975741;28;20058;-87
2022/06/04 00:37:33;;;;;;;0.10;0.10;;;;;;;;;;4959752;28;20137;-88
2022/06/04 00:39:59;;;;;;;0.10;0.10;;;;;;;;;;4975823;28;20042;-88
2022/06/04 00:42:25;;;;;;;0.20;0.20;;;;;;;;;;4975584;28;20136;-87
2022/06/04 00:44:51;;;;;;;0.30;0.30;;;;;;;;;;4959602;28;20042;-88
2022/06/04 00:47:20;;;;;;;0.10;0.10;;;;;;;;;;4992151;28;20038;-87
2022/06/04 00:49:46;;;;;;;0.10;0.10;;;;;;;;;;4991898;28;20046;-87
2022/06/04 00:52:13;;;;;;;0.10;0.10;;;;;;;;;;4975478;28;20068;-87
2022/06/04 00:54:40;;;;;;;0.10;0.10;;;;;;;;;;4975611;28;20046;-87
2022/06/04 00:57:06;;;;;;;0.10;0.10;;;;;;;;;;4975782;28;20042;-87
2022/06/04 00:59:39;;;;;;;0.10;0.10;;;;;;;;;;4991828;28;20048;-88
2022/06/04 01:02:23;;;;;;;0.10;0.10;;;;;;;;;;4991602;28;20490;-87
2022/06/04 01:04:49;;;;;;;0.10;0.10;;;;;;;;;;4975807;28;20046;-88
2022/06/04 01:07:35;;;;;;;0.10;0.10;;;;;;;;;;4975621;28;20046;-86
2022/06/04 01:10:06;;;;;;;0.10;0.10;;;;;;;;;;4975604;28;20101;-89
2022/06/04 01:12:41;;;;;;;0.10;0.10;;;;;;;;;;4975204;28;20125;-89
2022/06/04 01:15:26;;;;;;;0.10;0.10;;;;;;;;;;4975169;28;20043;-88
2022/06/04 01:17:55;;;;;;;0.10;0.10;;;;;;;;;;4975453;28;20442;-91
2022/06/04 01:20:21;;;;;;;0.10;0.10;;;;;;;;;;4975423;28;20038;-88
2022/06/04 01:22:59;;;;;;;0.10;0.10;;;;;;;;;;4975427;28;20096;-86
2022/06/04 01:25:41;;;;;;;0.10;0.10;;;;;;;;;;4959236;28;20499;-85
2022/06/04 01:28:15;;;;;;;0.10;0.10;;;;;;;;;;4991389;28;20038;-86
2022/06/04 01:30:43;;;;;;;0.10;0.10;;;;;;;;;;4959354;28;20490;-86
2022/06/04 01:33:11;;;;;;;0.22;0.10;;;;;;;;;;4959165;28;20038;-87
2022/06/04 01:35:37;;;;;;;0.10;0.10;;;;;;;;;;4959059;28;20057;-87
2022/06/04 01:38:11;;;;;;;0.10;0.10;;;;;;;;;;4991207;28;20054;-87
2022/06/04 01:41:07;;;;;;;0.10;0.10;;;;;;;;;;4959021;28;20038;-87
2022/06/04 01:43:35;;;;;;;0.10;0.10;;;;;;;;;;4977756;28;20185;-86
2022/06/04 01:46:21;;;;;;;0.10;0.10;;;;;;;;;;4975136;28;20073;-86
2022/06/04 01:48:47;;;;;;;0.17;0.17;;;;;;;;;;4959066;28;20464;-86
2022/06/04 01:51:16;;;;;;;0.10;0.10;;;;;;;;;;4975140;28;20050;-87
2022/06/04 01:53:42;;;;;;;0.32;0.30;;;;;;;;;;4978454;28;20053;-86
2022/06/04 01:56:10;;;;;;;0.10;0.10;;;;;;;;;;4978757;28;20042;-86
2022/06/04 01:58:38;;;;;;;0.10;0.10;;;;;;;;;;4978728;28;20046;-87
2022/06/04 02:01:09;;;;;;;0.10;0.10;;;;;;;;;;4962481;28;20053;-86
2022/06/04 02:03:35;;;;;;;0.10;0.10;;;;;;;;;;4978623;28;20121;-86
2022/06/04 02:06:03;;;;;;;0.10;0.10;;;;;;;;;;4994723;28;20039;-86
2022/06/04 02:08:32;;;;;;;0.10;0.10;;;;;;;;;;4978639;28;20119;-85
2022/06/04 02:11:02;;;;;;;0.10;0.10;;;;;;;;;;4962348;28;20041;-86
2022/06/04 02:13:28;;;;;;;0.10;0.10;;;;;;;;;;4962215;28;20042;-85
2022/06/04 02:15:54;;;;;;;0.10;0.10;;;;;;;;;;4962434;28;20367;-86
2022/06/04 02:18:20;;;;;;;0.10;0.10;;;;;;;;;;4994582;28;20129;-87
2022/06/04 02:20:46;;;;;;;0.88;0.30;;;;;;;;;;4978297;28;20042;-87
2022/06/04 02:23:12;;;;;;;0.10;0.10;;;;;;;;;;4978208;28;20108;-86
2022/06/04 02:25:38;;;;;;;0.10;0.10;;;;;;;;;;4962123;28;20046;-86
2022/06/04 02:28:05;;;;;;;0.10;0.10;;;;;;;;;;4978091;28;20042;-86
2022/06/04 02:30:36;;;;;;;0.20;0.20;;;;;;;;;;4978338;28;20125;-86
2022/06/04 02:33:04;;;;;;;0.10;0.10;;;;;;;;;;4978105;28;20041;-86
2022/06/04 02:35:37;;;;;;;0.10;0.10;;;;;;;;;;4961843;28;20101;-87
2022/06/04 02:38:13;;;;;;;0.10;0.10;;;;;;;;;;4978071;28;20398;-86
2022/06/04 02:40:43;;;;;;;0.10;0.10;;;;;;;;;;4993870;28;20482;-86
2022/06/04 02:43:29;;;;;;;0.10;0.10;;;;;;;;;;4977808;28;20088;-87
2022/06/04 02:45:58;;;;;;;0.10;0.10;;;;;;;;;;4977870;28;20093;-87
2022/06/04 02:48:36;;;;;;;0.10;0.10;;;;;;;;;;4977679;28;20038;-88
2022/06/04 02:51:04;;;;;;;0.10;0.10;;;;;;;;;;4961643;28;20049;-86
2022/06/04 02:53:30;;;;;;;0.10;0.10;;;;;;;;;;4977727;28;20085;-87
2022/06/04 02:55:58;;;;;;;0.10;0.10;;;;;;;;;;4977832;28;20186;-87
2022/06/04 02:58:23;;;;;;;0.10;0.10;;;;;;;;;;4978038;28;20112;-87
2022/06/04 03:00:52;;;;;;;0.10;0.10;;;;;;;;;;4977459;28;20561;-86
2022/06/04 03:03:18;;;;;;;0.10;0.10;;;;;;;;;;4976802;28;20050;-87
2022/06/04 03:05:54;;;;;;;0.10;0.10;;;;;;;;;;4977340;28;20048;-86
2022/06/04 03:08:20;;;;;;;0.10;0.10;;;;;;;;;;4961406;28;20490;-87
2022/06/04 03:10:46;;;;;;;0.10;0.10;;;;;;;;;;4977408;28;20041;-87
2022/06/04 03:13:12;;;;;;;0.10;0.10;;;;;;;;;;4961604;28;20049;-87
2022/06/04 03:15:38;;;;;;;0.10;0.10;;;;;;;;;;4977413;28;20038;-87
2022/06/04 03:18:04;;;;;;;0.10;0.10;;;;;;;;;;4993388;28;20043;-87
2022/06/04 03:20:30;;;;;;;0.10;0.10;;;;;;;;;;4977473;28;20072;-87
2022/06/04 03:22:56;;;;;;;0.10;0.10;;;;;;;;;;4961410;28;20041;-86
2022/06/04 03:25:22;;;;;;;0.10;0.10;;;;;;;;;;4962349;28;20984;-87
2022/06/04 03:27:48;;;;;;;0.10;0.10;;;;;;;;;;4964764;28;20188;-87
2022/06/04 03:30:14;;;;;;;0.10;0.10;;;;;;;;;;4963927;28;20186;-87
2022/06/04 03:32:41;;;;;;;0.10;0.10;;;;;;;;;;4965767;28;20042;-87
2022/06/04 03:35:07;;;;;;;0.10;0.10;;;;;;;;;;4965520;28;20050;-89
2022/06/04 03:37:34;;;;;;;0.10;0.10;;;;;;;;;;4976972;28;20097;-87
2022/06/04 03:40:00;;;;;;;0.10;0.10;;;;;;;;;;4960875;28;20093;-88
2022/06/04 03:42:26;;;;;;;0.10;0.10;;;;;;;;;;4976800;28;20081;-87
2022/06/04 03:44:52;;;;;;;0.10;0.10;;;;;;;;;;4992909;28;20046;-87
2022/06/04 03:47:19;;;;;;;0.10;0.10;;;;;;;;;;4960569;28;20042;-88
2022/06/04 03:49:46;;;;;;;0.10;0.10;;;;;;;;;;4992782;28;20042;-86
2022/06/04 03:52:13;;;;;;;0.10;0.10;;;;;;;;;;4960582;28;20098;-87
2022/06/04 03:54:55;;;;;;;0.10;0.10;;;;;;;;;;4960617;28;20046;-89
2022/06/04 03:57:41;;;;;;;0.10;0.10;;;;;;;;;;4978641;28;20494;-86
2022/06/04 04:00:08;;;;;;;0.10;0.10;;;;;;;;;;4962699;28;20172;-87
2022/06/04 04:02:34;;;;;;;0.10;0.10;;;;;;;;;;4992396;28;20050;-87
2022/06/04 04:05:00;;;;;;;0.10;0.10;;;;;;;;;;4976594;28;20096;-87
2022/06/04 04:07:26;;;;;;;0.10;0.10;;;;;;;;;;4960401;28;20125;-87
2022/06/04 04:09:52;;;;;;;0.10;0.10;;;;;;;;;;4976645;28;20082;-86
2022/06/04 04:12:18;;;;;;;0.10;0.10;;;;;;;;;;4959922;28;20042;-87
2022/06/04 04:14:44;;;;;;;0.10;0.10;;;;;;;;;;4960004;28;20049;-87
2022/06/04 04:17:10;;;;;;;0.10;0.10;;;;;;;;;;4976336;28;20046;-85
2022/06/04 04:19:36;;;;;;;0.10;0.10;;;;;;;;;;4976266;28;20497;-85
2022/06/04 04:22:02;;;;;;;0.10;0.10;;;;;;;;;;4960206;28;20129;-85
2022/06/04 04:24:28;;;;;;;0.10;0.10;;;;;;;;;;4976145;28;20082;-87
2022/06/04 04:26:54;;;;;;;0.10;0.10;;;;;;;;;;4976068;28;20120;-87
2022/06/04 04:29:20;;;;;;;0.10;0.10;;;;;;;;;;4959988;28;20121;-86
2022/06/04 04:31:46;;;;;;;0.10;0.10;;;;;;;;;;4975781;28;20042;-87
2022/06/04 04:34:12;;;;;;;0.10;0.10;;;;;;;;;;4975530;28;20065;-88
2022/06/04 04:36:38;;;;;;;0.10;0.10;;;;;;;;;;4975808;28;20050;-87
2022/06/04 04:39:05;;;;;;;0.10;0.10;;;;;;;;;;4975841;28;20077;-87
2022/06/04 04:41:31;;;;;;;0.20;0.20;;;;;;;;;;4975843;28;20042;-87
2022/06/04 04:43:57;;;;;;;0.10;0.10;;;;;;;;;;4959904;28;20049;-87
2022/06/04 04:46:23;;;;;;;0.10;0.10;;;;;;;;;;4975694;28;20046;-87
2022/06/04 04:48:49;;;;;;;0.10;0.10;;;;;;;;;;4959570;28;20432;-87
2022/06/04 04:51:19;;;;;;;0.10;0.10;;;;;;;;;;4959568;28;20049;-87
2022/06/04 04:53:46;;;;;;;0.10;0.10;;;;;;;;;;4975580;28;20038;-88
2022/06/04 04:56:15;;;;;;;0.10;0.10;;;;;;;;;;4975711;28;20486;-87
2022/06/04 04:58:41;;;;;;;0.10;0.10;;;;;;;;;;4959531;28;20045;-86
2022/06/04 05:01:17;;;;;;;0.10;0.10;;;;;;;;;;4991763;28;20050;-87
2022/06/04 05:03:44;;;;;;;0.10;0.10;;;;;;;;;;4959317;28;20050;-87
2022/06/04 05:06:10;;;;;;;0.10;0.10;;;;;;;;;;4959463;28;20042;-87
2022/06/04 05:08:36;;;;;;;0.10;0.10;;;;;;;;;;4975441;28;20030;-88
2022/06/04 05:11:06;;;;;;;0.32;0.32;;;;;;;;;;4975729;28;20389;-87
2022/06/04 05:13:32;;;;;;;0.10;0.10;;;;;;;;;;4975618;28;20544;-86
2022/06/04 05:15:58;;;;;;;0.10;0.10;;;;;;;;;;4975405;28;20082;-87
2022/06/04 05:18:24;;;;;;;0.10;0.10;;;;;;;;;;4975384;28;20402;-87
2022/06/04 05:20:50;;;;;;;0.10;0.10;;;;;;;;;;4991265;28;20057;-88
2022/06/04 05:23:16;;;;;;;0.10;0.10;;;;;;;;;;4959143;28;20402;-87
2022/06/04 05:25:42;;;;;;;0.10;0.10;;;;;;;;;;4975336;28;20035;-87
2022/06/04 05:28:08;;;;;;;0.35;0.35;;;;;;;;;;4962064;28;20043;-87
2022/06/04 05:30:34;;;;;;;0.10;0.10;;;;;;;;;;4995558;28;20042;-87
2022/06/04 05:33:01;;;;;;;0.10;0.10;;;;;;;;;;4979172;28;20389;-86
2022/06/04 05:35:27;;;;;;;0.10;0.10;;;;;;;;;;4979046;28;20117;-87
2022/06/04 05:37:53;;;;;;;0.10;0.10;;;;;;;;;;4979105;28;20695;-87
2022/06/04 05:40:19;;;;;;;0.10;0.10;;;;;;;;;;4963259;28;20046;-87
2022/06/04 05:42:45;;;;;;;0.10;0.10;;;;;;;;;;4978932;28;20041;-87
2022/06/04 05:45:11;;;;;;;0.20;0.20;;;;;;;;;;4962897;28;20042;-88
2022/06/04 05:47:38;;;;;;;0.10;0.10;;;;;;;;;;4963269;28;20437;-88
2022/06/04 05:50:04;;;;;;;0.10;0.10;;;;;;;;;;4962803;28;20038;-89
2022/06/04 05:52:30;;;;;;;0.20;0.20;;;;;;;;;;4962947;28;20606;-89
2022/06/04 05:54:56;;;;;;;0.10;0.10;;;;;;;;;;4962666;28;20066;-87
2022/06/04 05:57:22;;;;;;;0.10;0.10;;;;;;;;;;4962908;28;20038;-88
2022/06/04 05:59:49;;;;;;;0.10;0.10;;;;;;;;;;4978816;28;20150;-86
2022/06/04 06:02:15;;;;;;;0.28;0.28;;;;;;;;;;4962507;28;20042;-88
2022/06/04 06:04:41;;;;;;;0.10;0.10;;;;;;;;;;4960846;28;20482;-87
2022/06/04 06:07:08;;;;;;;0.10;0.10;;;;;;;;;;4978574;28;20045;-87
2022/06/04 06:09:34;;;;;;;0.20;0.20;;;;;;;;;;4978370;28;20077;-87
2022/06/04 06:12:01;;;;;;;0.10;0.10;;;;;;;;;;4994468;28;20074;-87
2022/06/04 06:14:27;;;;;;;0.20;0.20;;;;;;;;;;4978676;28;20038;-90
2022/06/04 06:16:53;;;;;;;0.10;0.10;;;;;;;;;;4962024;28;20551;-89
2022/06/04 06:19:20;;;;;;;0.10;0.10;;;;;;;;;;4962504;28;20042;-89
2022/06/04 06:21:46;;;;;;;0.10;0.10;;;;;;;;;;4962036;28;20042;-89
2022/06/04 06:24:12;;;;;;;0.10;0.10;;;;;;;;;;4962036;28;20049;-90
2022/06/04 06:26:45;;;;;;;0.10;0.10;;;;;;;;;;4962523;28;20125;-89
2022/06/04 06:29:11;;;;;;;0.10;0.10;;;;;;;;;;4961666;28;20042;-90
2022/06/04 06:31:38;;;;;;;0.10;0.10;;;;;;;;;;4958869;28;20047;-90
2022/06/04 06:34:04;;;;;;;0.10;0.10;;;;;;;;;;4942691;28;20050;-91
2022/06/04 06:36:30;;;;;;;0.10;0.10;;;;;;;;;;4975427;28;20059;-91
2022/06/04 06:38:56;;;;;;;0.10;0.10;;;;;;;;;;4942925;28;20043;-91
2022/06/04 06:41:23;;;;;;;0.10;0.10;;;;;;;;;;4958922;28;20494;-90
2022/06/04 06:43:52;;;;;;;0.10;0.10;;;;;;;;;;4942703;28;20133;-91
2022/06/04 06:46:19;;;;;;;0.10;0.10;;;;;;;;;;4943103;28;20043;-90
2022/06/04 06:48:46;;;;;;;0.10;0.10;;;;;;;;;;4942770;28;20047;-88
2022/06/04 06:51:18;;;;;;;0.10;0.10;;;;;;;;;;4942690;28;20048;-88
2022/06/04 06:53:44;;;;;;;0.10;0.10;;;;;;;;;;4990533;28;20038;-89
2022/06/04 06:56:17;;;;;;;0.10;0.10;;;;;;;;;;4958637;28;20093;-89
2022/06/04 06:58:43;;;;;;;0.10;0.10;;;;;;;;;;4942541;28;20093;-89
2022/06/04 07:01:10;;;;;;;0.10;0.10;;;;;;;;;;4942440;28;20042;-91
2022/06/04 07:03:37;;;;;;;0.10;0.10;;;;;;;;;;4942438;28;20061;-88
2022/06/04 07:06:03;;;;;;;0.10;0.10;;;;;;;;;;4958210;28;20039;-89
2022/06/04 07:08:29;;;;;;;0.20;0.20;;;;;;;;;;4958568;28;20042;-91
2022/06/04 07:10:55;;;;;;;0.10;0.10;;;;;;;;;;4958225;28;20042;-90
2022/06/04 07:13:21;;;;;;;0.20;0.20;;;;;;;;;;4942191;28;20043;-90
2022/06/04 07:15:49;;;;;;;0.10;0.10;;;;;;;;;;4990104;28;20494;-89
2022/06/04 07:18:15;;;;;;;0.10;0.10;;;;;;;;;;4958279;28;20090;-89
2022/06/04 07:20:41;;;;;;;0.10;0.10;;;;;;;;;;4942213;28;20039;-89
2022/06/04 07:23:08;;;;;;;0.10;0.10;;;;;;;;;;4958289;28;20086;-90
2022/06/04 07:25:34;;;;;;;0.20;0.20;;;;;;;;;;4958149;28;20047;-88
2022/06/04 07:28:00;;;;;;;0.10;0.10;;;;;;;;;;4970752;28;20034;-87
2022/06/04 07:30:26;;;;;;;0.10;0.10;;;;;;;;;;4993573;28;20042;-88
2022/06/04 07:32:53;;;;;;;0.10;0.10;;;;;;;;;;4977188;28;20049;-91
2022/06/04 07:35:19;;;;;;;0.13;0.13;;;;;;;;;;4961421;28;20510;-91
2022/06/04 07:37:46;;;;;;;0.20;0.20;;;;;;;;;;4977685;28;20481;-95
2022/06/04 07:40:12;;;;;;;0.20;0.20;;;;;;;;;;4977483;28;20096;-92
2022/06/04 07:42:38;;;;;;;0.20;0.20;;;;;;;;;;4960901;28;20272;-88
2022/06/04 07:45:05;;;;;;;0.17;0.17;;;;;;;;;;4976839;28;20490;-88
2022/06/04 07:47:30;;;;;;;0.10;0.10;;;;;;;;;;4977187;28;20145;-90
2022/06/04 07:49:57;;;;;;;0.20;0.20;;;;;;;;;;4960285;28;20529;-90
2022/06/04 07:52:23;;;;;;;0.30;0.30;;;;;;;;;;4960718;28;20046;-89
2022/06/04 07:54:49;;;;;;;0.10;0.10;;;;;;;;;;4976685;28;20053;-89
2022/06/04 07:57:15;;;;;;;0.10;0.10;;;;;;;;;;4977015;28;20043;-89
2022/06/04 07:59:41;;;;;;;0.20;0.20;;;;;;;;;;4961139;28;20429;-89
2022/06/04 08:02:07;;;;;;;0.20;0.20;;;;;;;;;;4992992;28;20046;-89
2022/06/04 08:04:33;;;;;;;0.10;0.10;;;;;;;;;;4982879;28;20046;-92
2022/06/04 08:07:01;;;;;;;0.10;0.10;;;;;;;;;;4982353;28;20050;-92
2022/06/04 08:09:27;;;;;;;0.10;0.10;;;;;;;;;;4963593;28;20129;-91
2022/06/04 08:11:53;;;;;;;0.10;0.10;;;;;;;;;;4977061;28;20045;-92
2022/06/04 08:14:23;;;;;;;0.20;0.20;;;;;;;;;;4965529;28;20514;-93
2022/06/04 08:16:53;;;;;;;0.10;0.10;;;;;;;;;;4962807;28;20046;-90
2022/06/04 08:19:19;;;;;;;0.20;0.20;;;;;;;;;;4976714;28;20050;-90
2022/06/04 08:21:45;;;;;;;0.10;0.10;;;;;;;;;;4976448;28;20088;-91
2022/06/04 08:24:12;;;;;;;0.10;0.10;;;;;;;;;;4976343;28;20050;-93
2022/06/04 08:26:38;;;;;;;0.10;0.10;;;;;;;;;;4960560;28;20501;-93
2022/06/04 08:29:04;;;;;;;0.20;0.20;;;;;;;;;;4960500;28;20041;-91
2022/06/04 08:31:31;;;;;;;0.20;0.20;;;;;;;;;;4960600;28;20529;-93
2022/06/04 08:33:57;;;;;;;0.20;0.20;;;;;;;;;;4959701;28;20081;-91
2022/06/04 08:36:23;;;;;;;0.10;0.10;;;;;;;;;;4959948;28;20050;-91
2022/06/04 08:38:53;;;;;;;0.30;0.30;;;;;;;;;;4959932;28;20052;-95
2022/06/04 08:41:28;;;;;;;0.20;0.20;;;;;;;;;;4976140;28;20375;-94
2022/06/04 08:43:54;;;;;;;0.20;0.20;;;;;;;;;;4992144;28;20042;-94
2022/06/04 08:46:43;;;;;;;0.20;0.20;;;;;;;;;;4992131;28;20042;-90
2022/06/04 08:49:30;;;;;;;0.20;0.20;;;;;;;;;;4991644;28;20038;-92
2022/06/04 08:52:00;;;;;;;0.10;0.10;;;;;;;;;;4991632;28;20046;-92
2022/06/04 09:00:03;;;;;;;0.20;0.20;;;;;;;;;;4978228;28;20057;-92
2022/06/04 09:02:34;;;;;;;0.20;0.20;;;;;;;;;;4974401;28;20130;-92
2022/06/04 09:05:17;;;;;;;0.10;0.10;;;;;;;;;;4959646;28;20042;-91
2022/06/04 09:07:49;;;;;;;0.20;0.20;;;;;;;;;;4959581;28;20042;-91
2022/06/04 09:10:20;;;;;;;0.20;0.20;;;;;;;;;;4975744;28;20050;-91
2022/06/04 09:12:47;;;;;;;0.20;0.20;;;;;;;;;;4959753;28;20379;-91
2022/06/04 09:15:29;;;;;;;0.20;0.20;;;;;;;;;;4975500;28;20296;-92
2022/06/04 09:17:56;;;;;;;;;;;;;;;;;;4976633;28;20050;-92
2022/06/04 09:20:26;;;;;;;0.20;0.20;;;;;;;;;;4991743;28;19924;-92
2022/06/04 09:22:53;;;;;;;0.20;0.20;;;;;;;;;;4959525;28;20038;-92
2022/06/04 09:25:20;;;;;;;0.20;0.20;;;;;;;;;;4959192;28;20490;-92
2022/06/04 09:27:52;;;;;;;0.20;0.20;;;;;;;;;;4959593;28;20068;-92
2022/06/04 09:30:38;;;;;;;0.20;0.20;;;;;;;;;;4959448;28;20042;-91
2022/06/04 09:33:34;;;;;;;0.10;0.10;;;;;;;;;;4959082;28;20053;-92
2022/06/04 09:36:00;;;;;;;0.13;0.13;;;;;;;;;;4978671;28;20061;-91
2022/06/04 09:38:28;;;;;;;0.20;0.20;;;;;;;;;;4970084;28;20397;-91
2022/06/04 09:41:21;;;;;;;0.20;0.20;;;;;;;;;;4994477;28;20034;-89
2022/06/04 09:43:47;;;;;;;0.20;0.20;;;;;;;;;;4990395;28;20065;-90
2022/06/04 09:46:14;;;;;;;0.38;0.38;;;;;;;;;;4978679;28;20440;-88
2022/06/04 09:48:44;;;;;;;0.47;0.47;;;;;;;;;;4962369;28;20378;-88
2022/06/04 09:51:18;;;;;;;0.20;0.20;;;;;;;;;;4962501;28;20450;-89
2022/06/04 09:53:46;;;;;;;0.20;0.20;;;;;;;;;;4962237;28;20038;-88
2022/06/04 09:56:14;;;;;;;0.20;0.20;;;;;;;;;;4978499;28;20049;-90
2022/06/04 09:58:47;;;;;;;0.13;0.13;;;;;;;;;;4978209;28;20038;-89
2022/06/04 10:01:16;;;;;;;0.20;0.20;;;;;;;;;;4962357;28;20401;-89
2022/06/04 10:03:42;;;;;;;0.10;0.10;;;;;;;;;;4978241;28;20084;-88
2022/06/04 10:06:12;;;;;;;0.10;0.10;;;;;;;;;;4962509;28;20033;-88
2022/06/04 10:11:32;;;;;;;0.10;0.10;;;;;;;;;;4980734;28;20505;-90
2022/06/04 10:13:58;;;;;;;0.20;0.20;;;;;;;;;;4965337;28;20044;-88
2022/06/04 10:16:39;;;;;;;0.30;0.30;;;;;;;;;;4965525;28;20052;-87
2022/06/04 10:19:15;;;;;;;0.10;0.10;;;;;;;;;;4965867;28;20041;-88
2022/06/04 10:21:41;;;;;;;0.17;0.17;;;;;;;;;;5014354;28;20045;-88
2022/06/04 10:24:19;;;;;;;0.20;0.20;;;;;;;;;;4981852;28;20100;-87
2022/06/04 10:26:58;;;;;;;0.20;0.20;;;;;;;;;;4997806;28;20038;-87
2022/06/04 10:29:27;;;;;;;0.20;0.20;;;;;;;;;;4981536;28;20041;-88
2022/06/04 10:32:01;;;;;;;0.20;0.20;;;;;;;;;;4981292;28;20385;-88
2022/06/04 10:34:36;;;;;;;0.20;0.20;;;;;;;;;;4981199;28;20046;-87
2022/06/04 10:37:07;;;;;;;0.20;0.20;;;;;;;;;;4981515;28;20085;-90
2022/06/04 10:39:36;;;;;;;0.10;0.10;;;;;;;;;;4981476;28;20490;-90
2022/06/04 10:42:05;;;;;;;0.10;0.10;;;;;;;;;;4997378;28;20456;-89
2022/06/04 10:44:31;;;;;;;0.10;0.10;;;;;;;;;;4965057;28;20042;-90
2022/06/04 10:47:08;;;;;;;0.90;0.30;;;;;;;;;;4981079;28;20152;-89
2022/06/04 10:49:40;;;;;;;0.20;0.20;;;;;;;;;;4981226;28;20049;-90
2022/06/04 10:52:21;;;;;;;0.10;0.10;;;;;;;;;;4981408;28;20448;-89
2022/06/04 10:54:50;;;;;;;0.20;0.20;;;;;;;;;;4980925;28;20073;-94
2022/06/04 10:57:33;;;;;;;0.10;0.10;;;;;;;;;;4980977;28;20041;-89
2022/06/04 11:00:10;;;;;;;0.10;0.10;;;;;;;;;;4964912;28;20041;-89
2022/06/04 11:02:36;;;;;;;0.20;0.20;;;;;;;;;;4980645;28;20124;-90
2022/06/04 11:05:22;;;;;;;0.20;0.20;;;;;;;;;;4996971;28;20076;-89
2022/06/04 11:07:52;;;;;;;0.20;0.20;;;;;;;;;;4948503;28;20539;-89
2022/06/04 11:10:19;;;;;;;0.22;0.22;;;;;;;;;;4981262;28;20076;-89
2022/06/04 11:12:46;;;;;;;0.20;0.20;;;;;;;;;;4980692;28;20117;-89
2022/06/04 11:15:19;;;;;;;0.10;0.10;;;;;;;;;;4980577;28;20400;-89
2022/06/04 11:17:47;;;;;;;0.10;0.10;;;;;;;;;;4980663;28;20349;-89
2022/06/04 11:20:18;;;;;;;0.20;0.20;;;;;;;;;;4964425;28;20140;-89
2022/06/04 11:23:04;;;;;;;0.20;0.20;;;;;;;;;;4980171;28;20060;-89
2022/06/04 11:25:32;;;;;;;1.10;0.30;;;;;;;;;;4947444;28;20535;-89
2022/06/04 11:28:01;;;;;;;0.20;0.20;;;;;;;;;;4980906;28;20163;-88
2022/06/04 11:30:41;;;;;;;0.25;0.25;;;;;;;;;;4996543;28;20221;-88
2022/06/04 11:33:13;;;;;;;0.20;0.20;;;;;;;;;;4980320;28;20049;-88
2022/06/04 11:35:39;;;;;;;0.10;0.10;;;;;;;;;;4979904;28;20049;-88
2022/06/04 11:38:21;;;;;;;0.30;0.30;;;;;;;;;;4980018;28;20045;-88
2022/06/04 11:40:47;;;;;;;0.20;0.20;;;;;;;;;;4980054;28;20049;-89
2022/06/04 11:43:16;;;;;;;0.20;0.20;;;;;;;;;;4996126;28;20062;-89
2022/06/04 11:45:48;;;;;;;0.20;0.20;;;;;;;;;;4996090;28;20042;-90
2022/06/04 11:48:14;;;;;;;0.15;0.15;;;;;;;;;;4963823;28;20064;-89
2022/06/04 11:51:06;;;;;;;0.20;0.20;;;;;;;;;;4980151;28;20050;-90
2022/06/04 11:53:35;;;;;;;0.10;0.10;;;;;;;;;;4943613;28;20100;-90
2022/06/04 11:56:04;;;;;;;0.20;0.20;;;;;;;;;;4979864;28;20486;-92
2022/06/04 11:58:30;;;;;;;0.10;0.10;;;;;;;;;;4964038;28;20064;-90
2022/06/04 12:00:57;;;;;;;0.10;0.10;;;;;;;;;;4995953;28;20481;-89
2022/06/04 12:03:29;;;;;;;0.30;0.30;;;;;;;;;;4983550;28;20073;-90
2022/06/04 12:06:04;;;;;;;0.20;0.20;;;;;;;;;;4967569;28;20497;-90
2022/06/04 12:08:31;;;;;;;0.20;0.20;;;;;;;;;;4980047;28;20556;-90
2022/06/04 12:10:57;;;;;;;0.13;0.13;;;;;;;;;;4964481;28;20044;-90
2022/06/04 12:13:32;;;;;;;0.13;0.13;;;;;;;;;;4981421;28;20045;-91
2022/06/04 12:16:04;;;;;;;0.20;0.20;;;;;;;;;;4978960;28;20413;-91
2022/06/04 12:18:30;;;;;;;;;;;;;;;;;;4983676;28;20504;-90
2022/06/04 12:26:38;;;;;;;0.10;0.10;;;;;;;;;;4981878;28;20046;-90
2022/06/04 12:29:23;;;;;;;0.10;0.10;;;;;;;;;;4979382;28;20038;-91
2022/06/04 12:31:57;;;;;;;0.20;0.20;;;;;;;;;;4979430;28;20053;-90
2022/06/04 12:34:25;;;;;;;0.10;0.10;;;;;;;;;;4959456;28;20061;-91
2022/06/04 12:36:52;;;;;;;0.10;0.10;;;;;;;;;;4959747;28;20485;-91
2022/06/04 12:39:41;;;;;;;0.13;0.13;;;;;;;;;;4960141;28;20401;-91
2022/06/04 12:42:20;;;;;;;0.10;0.10;;;;;;;;;;4970661;28;20053;-92
2022/06/04 12:45:06;;;;;;;0.20;0.20;;;;;;;;;;4991876;28;20042;-89
2022/06/04 12:47:33;;;;;;;0.10;0.10;;;;;;;;;;4959727;28;20045;-90
2022/06/04 12:50:18;;;;;;;0.10;0.10;;;;;;;;;;4959853;28;20049;-90
2022/06/04 12:52:48;;;;;;;0.20;0.20;;;;;;;;;;4975877;28;20050;-91
2022/06/04 12:55:25;;;;;;;0.25;0.25;;;;;;;;;;4958712;28;20057;-91
2022/06/04 12:57:52;;;;;;;0.10;0.10;;;;;;;;;;4957296;28;20042;-89
2022/06/04 13:00:21;;;;;;;0.10;0.10;;;;;;;;;;4991552;28;20559;-91
2022/06/04 13:02:58;;;;;;;0.10;0.10;;;;;;;;;;4988176;28;20035;-91
2022/06/04 13:05:27;;;;;;;0.10;0.10;;;;;;;;;;4940156;28;20058;-89
2022/06/04 13:08:05;;;;;;;0.10;0.10;;;;;;;;;;4940545;28;20126;-90
2022/06/04 13:10:34;;;;;;;0.30;0.30;;;;;;;;;;4956674;28;20035;-89
2022/06/04 13:13:01;;;;;;;0.10;0.10;;;;;;;;;;4940376;28;20049;-90
2022/06/04 13:15:30;;;;;;;0.20;0.20;;;;;;;;;;4972161;28;20070;-92
2022/06/04 13:17:57;;;;;;;0.20;0.20;;;;;;;;;;4955902;28;20042;-93
2022/06/04 13:20:32;;;;;;;0.20;0.20;;;;;;;;;;4956085;28;20057;-89
2022/06/04 13:23:01;;;;;;;0.20;0.20;;;;;;;;;;4971951;28;20133;-90
2022/06/04 13:25:31;;;;;;;0.10;0.10;;;;;;;;;;4940541;28;20355;-90
2022/06/04 13:27:56;;;;;;;0.10;0.10;;;;;;;;;;4940310;28;20562;-90
2022/06/04 13:30:24;;;;;;;0.10;0.10;;;;;;;;;;4939945;28;20234;-89
2022/06/04 13:32:50;;;;;;;0.10;0.10;;;;;;;;;;4939860;28;20138;-90
2022/06/04 13:35:20;;;;;;;0.10;0.10;;;;;;;;;;4939752;28;20051;-90
2022/06/04 13:37:46;;;;;;;0.10;0.10;;;;;;;;;;4955813;28;20087;-89
2022/06/04 13:40:18;;;;;;;0.10;0.10;;;;;;;;;;4971805;28;20125;-88
2022/06/04 13:42:44;;;;;;;0.17;0.17;;;;;;;;;;4939866;28;20043;-89
2022/06/04 13:45:10;;;;;;;0.10;0.10;;;;;;;;;;4955599;28;20126;-89
2022/06/04 13:47:36;;;;;;;0.20;0.20;;;;;;;;;;4972180;28;20129;-89
2022/06/04 13:50:05;;;;;;;0.10;0.10;;;;;;;;;;4959789;28;20041;-89
2022/06/04 13:52:40;;;;;;;0.10;0.10;;;;;;;;;;4975443;28;20100;-90
2022/06/04 13:55:07;;;;;;;0.10;0.10;;;;;;;;;;4943580;28;20130;-90
2022/06/04 13:57:40;;;;;;;0.10;0.10;;;;;;;;;;4943387;28;20105;-89
2022/06/04 14:00:06;;;;;;;0.30;0.30;;;;;;;;;;4959627;28;20051;-89
2022/06/04 14:02:32;;;;;;;0.13;0.13;;;;;;;;;;4975272;28;20078;-93
2022/06/04 14:07:47;;;;;;;0.10;0.10;;;;;;;;;;4961776;28;20078;-89
2022/06/04 14:10:20;;;;;;;0.10;0.10;;;;;;;;;;4959148;28;20058;-89
2022/06/04 14:12:46;;;;;;;0.20;0.20;;;;;;;;;;4959120;28;20117;-89
2022/06/04 14:15:21;;;;;;;0.17;0.17;;;;;;;;;;4975129;28;20510;-88
2022/06/04 14:17:50;;;;;;;0.20;0.20;;;;;;;;;;4959162;28;20402;-89
2022/06/04 14:20:32;;;;;;;0.10;0.10;;;;;;;;;;4974997;28;20122;-88
2022/06/04 14:23:13;;;;;;;0.10;0.10;;;;;;;;;;4942912;28;20632;-88
2022/06/04 14:25:39;;;;;;;0.10;0.10;;;;;;;;;;4983993;28;20567;-88
2022/06/04 14:28:16;;;;;;;0.10;0.10;;;;;;;;;;4994045;28;20069;-88
2022/06/04 14:30:41;;;;;;;0.20;0.20;;;;;;;;;;4962188;28;20049;-89
2022/06/04 14:33:16;;;;;;;0.20;0.20;;;;;;;;;;4978093;28;20050;-88
2022/06/04 14:35:42;;;;;;;0.32;0.30;;;;;;;;;;4961974;28;20089;-88
2022/06/04 14:38:14;;;;;;;0.10;0.10;;;;;;;;;;4961956;28;20131;-89
2022/06/04 14:40:46;;;;;;;0.10;0.10;;;;;;;;;;4962624;28;20042;-88
2022/06/04 14:43:18;;;;;;;0.10;0.10;;;;;;;;;;4977907;28;20039;-88
2022/06/04 14:45:57;;;;;;;0.10;0.10;;;;;;;;;;4994069;28;20046;-89
2022/06/04 14:48:28;;;;;;;0.20;0.20;;;;;;;;;;4994016;28;20039;-88
2022/06/04 14:51:39;;;;;;;0.28;0.20;;;;;;;;;;4977920;28;20206;-88
2022/06/04 14:54:05;;;;;;;0.13;0.13;;;;;;;;;;4994065;28;20038;-92
2022/06/04 14:56:53;;;;;;;0.10;0.10;;;;;;;;;;4964014;28;20054;-92
2022/06/04 14:59:25;;;;;;;0.10;0.10;;;;;;;;;;4978279;28;20049;-92
2022/06/04 15:01:51;;;;;;;0.20;0.20;;;;;;;;;;4978540;28;20045;-93
2022/06/04 15:04:18;;;;;;;0.10;0.10;;;;;;;;;;4996494;28;20096;-94
2022/06/04 15:06:54;;;;;;;0.10;0.10;;;;;;;;;;4994008;28;20046;-88
2022/06/04 15:09:31;;;;;;;0.20;0.20;;;;;;;;;;4993975;28;20042;-88
2022/06/04 15:12:16;;;;;;;0.10;0.10;;;;;;;;;;4978102;28;20045;-87
2022/06/04 15:14:47;;;;;;;0.20;0.20;;;;;;;;;;4994777;28;20049;-87
2022/06/04 15:17:25;;;;;;;0.13;0.13;;;;;;;;;;4961347;28;20101;-87
2022/06/04 15:20:09;;;;;;;0.10;0.10;;;;;;;;;;4977144;28;20049;-87